Aérodrome :
LOGIN :

S'inscrire | Disclaimer

   EN    FR    IT 

 










Légende :    VFR   VFR Marginal   IFR   IFR Intensif   IFR Très Intensif
Visi : 
Plafond : 
>= 8 km
>= 3000ft
5 à 8 km
1000 à 3000 ft
1500m à 5 km
500 à 1000 ft
800 à 1500m
200 à 500 ft
< 800m
< 200 ft
Symboles :   Orages  Brouillard  Fortes neiges  Fortes précipitations  Vent > 20 kt
SIGMETs :   Divers  Orages  Givrage  Turbulence  Onde Orograph.  Cendres Volcan.






- Altitude de l'aérodrome : 29 ft


LIRM - Grazzanise Caserta

DERNIER METAR :
  • 272055Z /////KT 9999 FEW020 21/20 Q1016 RMK SCT SCT090 VIS MIN 9999 WIND THR06 02004KT BLU

METARs EXPIRÉS :
  • 271955Z /////KT 9999 FEW020 22/20 Q1016 RMK SCT SCT090 VIS MIN 9999 WIND THR06 02003KT BLU
  • 271855Z /////KT 9999 FEW020 23/21 Q1016 RMK BKN SCT100 VIS MIN 9999 WIND THR06 00000KT BLU

TAF TAF LIRM
Valide du 27 à 21h jusqu'au 28 à 06h UTC


272000Z 2721/2806 VRB03KT 9999 FEW020 SCT040



MET'MAP, la Météo Aéronautique d'un coup d'oeil ! - Copyright ORBIFLY Décembre 2007 - Disclaimer

ORBIFLY MET'MAP TEAM :

Programmation & Développement : Alexandra Zaïnal
Sur une idée originale de : Baudouin d'Aumeries
Assistance à la programmation : Marc-Olivier Méhu
Soutien technique & logistique : Manuel Goepfert

Contact : metmap@orbifly.com




SOURCES & CREDITS :

   NOAA